Terminal Aerodrome Forecast
Issued by NWS Sterling, VA

Current Version | Previous Version | Graphics & Text | Print | Product List | Glossary On
Versions: 1 2 3 4 5 6 7 8 9 10 11 12 13 14 15 16
667
FTUS41 KLWX 080520
TAFMRB
TAF
KMRB 080520Z 0806/0906 VRB03KT P6SM BKN250
     FM082000 12005KT 3SM -RASN OVC020
     FM082300 12005KT 3/4SM -SN OVC009
     FM090200 12005KT 1/2SM SN OVC005=

USA.gov is the U.S. government's official web portal to all federal, state and local government web resources and services.